sensor_id;sensor_type;location;lat;lon;timestamp;pressure;altitude;pressure_sealevel;temperature;humidity
4410;BME280;2218;51.408;7.208;2023-03-14T00:01:15;97287.00;;;17.96;48.49
4410;BME280;2218;51.408;7.208;2023-03-14T00:03:43;97293.09;;;17.96;48.11
4410;BME280;2218;51.408;7.208;2023-03-14T00:06:12;97284.38;;;17.96;48.53
4410;BME280;2218;51.408;7.208;2023-03-14T00:08:42;97280.94;;;17.95;48.41
4410;BME280;2218;51.408;7.208;2023-03-14T00:11:13;97279.25;;;17.94;48.60
4410;BME280;2218;51.408;7.208;2023-03-14T00:13:41;97263.50;;;17.94;48.17
4410;BME280;2218;51.408;7.208;2023-03-14T00:16:12;97249.53;;;17.94;48.48
4410;BME280;2218;51.408;7.208;2023-03-14T00:18:39;97230.31;;;17.93;48.28
4410;BME280;2218;51.408;7.208;2023-03-14T00:21:09;97237.22;;;17.94;48.14
4410;BME280;2218;51.408;7.208;2023-03-14T00:23:39;97231.97;;;17.94;47.85
4410;BME280;2218;51.408;7.208;2023-03-14T00:26:10;97225.88;;;17.94;48.15
4410;BME280;2218;51.408;7.208;2023-03-14T00:28:39;97229.50;;;17.93;48.40
4410;BME280;2218;51.408;7.208;2023-03-14T00:31:12;97237.38;;;17.93;48.15
4410;BME280;2218;51.408;7.208;2023-03-14T00:33:40;97246.91;;;17.94;48.27
4410;BME280;2218;51.408;7.208;2023-03-14T00:36:11;97271.53;;;17.93;47.81
4410;BME280;2218;51.408;7.208;2023-03-14T00:38:41;97277.63;;;17.93;48.47
4410;BME280;2218;51.408;7.208;2023-03-14T00:41:12;97293.38;;;17.93;48.12
4410;BME280;2218;51.408;7.208;2023-03-14T00:43:41;97284.69;;;17.93;48.07
4410;BME280;2218;51.408;7.208;2023-03-14T00:46:08;97287.31;;;17.93;48.22
4410;BME280;2218;51.408;7.208;2023-03-14T00:48:35;97282.06;;;17.93;47.90
4410;BME280;2218;51.408;7.208;2023-03-14T00:51:04;97269.91;;;17.92;48.26
4410;BME280;2218;51.408;7.208;2023-03-14T00:53:35;97268.91;;;17.93;47.95
4410;BME280;2218;51.408;7.208;2023-03-14T00:56:03;97254.13;;;17.92;47.72
4410;BME280;2218;51.408;7.208;2023-03-14T00:58:32;97251.50;;;17.92;47.89
4410;BME280;2218;51.408;7.208;2023-03-14T01:00:59;97254.13;;;17.92;47.99
4410;BME280;2218;51.408;7.208;2023-03-14T01:03:26;97270.72;;;17.92;47.98
4410;BME280;2218;51.408;7.208;2023-03-14T01:05:53;97295.19;;;17.93;47.97
4410;BME280;2218;51.408;7.208;2023-03-14T01:08:20;97318.19;;;17.91;47.64
4410;BME280;2218;51.408;7.208;2023-03-14T01:10:47;97345.09;;;17.93;47.89
4410;BME280;2218;51.408;7.208;2023-03-14T01:13:14;97353.97;;;17.92;47.97
4410;BME280;2218;51.408;7.208;2023-03-14T01:15:42;97337.38;;;17.91;48.08
4410;BME280;2218;51.408;7.208;2023-03-14T01:18:10;97325.06;;;17.92;47.40
4410;BME280;2218;51.408;7.208;2023-03-14T01:20:37;97318.19;;;17.91;48.18
4410;BME280;2218;51.408;7.208;2023-03-14T01:23:04;97319.97;;;17.90;47.93
4410;BME280;2218;51.408;7.208;2023-03-14T01:25:31;97309.47;;;17.90;47.63
4410;BME280;2218;51.408;7.208;2023-03-14T01:27:58;97309.47;;;17.90;47.84
4410;BME280;2218;51.408;7.208;2023-03-14T01:30:27;97319.13;;;17.90;47.91
4410;BME280;2218;51.408;7.208;2023-03-14T01:32:55;97321.75;;;17.90;48.20
4410;BME280;2218;51.408;7.208;2023-03-14T01:35:22;97320.13;;;17.89;47.93
4410;BME280;2218;51.408;7.208;2023-03-14T01:37:50;97304.34;;;17.89;47.83
4410;BME280;2218;51.408;7.208;2023-03-14T01:40:21;97305.19;;;17.89;47.37
4410;BME280;2218;51.408;7.208;2023-03-14T01:42:55;97293.03;;;17.88;47.97
4410;BME280;2218;51.408;7.208;2023-03-14T01:48:54;97283.50;;;17.87;48.17
4410;BME280;2218;51.408;7.208;2023-03-14T01:51:28;97280.06;;;17.87;48.01
4410;BME280;2218;51.408;7.208;2023-03-14T01:54:08;97276.44;;;17.88;48.36
4410;BME280;2218;51.408;7.208;2023-03-14T01:56:38;97273.81;;;17.88;47.89
4410;BME280;2218;51.408;7.208;2023-03-14T01:59:09;97272.19;;;17.87;48.11
4410;BME280;2218;51.408;7.208;2023-03-14T02:01:41;97273.16;;;17.86;47.90
4410;BME280;2218;51.408;7.208;2023-03-14T02:04:11;97265.28;;;17.86;47.97
4410;BME280;2218;51.408;7.208;2023-03-14T02:06:49;97267.06;;;17.85;48.12
4410;BME280;2218;51.408;7.208;2023-03-14T02:09:19;97254.09;;;17.83;48.23
4410;BME280;2218;51.408;7.208;2023-03-14T02:11:47;97260.84;;;17.86;48.63
4410;BME280;2218;51.408;7.208;2023-03-14T02:14:39;97247.84;;;17.85;48.02
4410;BME280;2218;51.408;7.208;2023-03-14T02:17:25;97250.47;;;17.85;48.29
4410;BME280;2218;51.408;7.208;2023-03-14T02:20:31;97263.59;;;17.85;47.99
4410;BME280;2218;51.408;7.208;2023-03-14T02:23:01;97262.78;;;17.84;47.83
4410;BME280;2218;51.408;7.208;2023-03-14T02:25:40;97263.59;;;17.85;48.07
4410;BME280;2218;51.408;7.208;2023-03-14T02:28:12;97265.56;;;17.82;48.17
4410;BME280;2218;51.408;7.208;2023-03-14T02:30:40;97257.69;;;17.82;48.46
4410;BME280;2218;51.408;7.208;2023-03-14T02:33:12;97256.88;;;17.82;48.18
4410;BME280;2218;51.408;7.208;2023-03-14T02:35:47;97249.81;;;17.82;48.14
4410;BME280;2218;51.408;7.208;2023-03-14T02:38:23;97254.25;;;17.82;47.88
4410;BME280;2218;51.408;7.208;2023-03-14T02:40:53;97249.97;;;17.81;47.85
4410;BME280;2218;51.408;7.208;2023-03-14T02:43:21;97255.25;;;17.81;48.17
4410;BME280;2218;51.408;7.208;2023-03-14T02:45:55;97253.44;;;17.81;48.29
4410;BME280;2218;51.408;7.208;2023-03-14T02:48:26;97253.44;;;17.81;48.41
4410;BME280;2218;51.408;7.208;2023-03-14T02:50:57;97267.56;;;17.80;48.26
4410;BME280;2218;51.408;7.208;2023-03-14T02:53:30;97258.00;;;17.79;48.47
4410;BME280;2218;51.408;7.208;2023-03-14T02:56:01;97251.91;;;17.79;48.20
4410;BME280;2218;51.408;7.208;2023-03-14T02:58:32;97259.66;;;17.80;48.26
4410;BME280;2218;51.408;7.208;2023-03-14T03:01:17;97257.19;;;17.79;48.01
4410;BME280;2218;51.408;7.208;2023-03-14T03:03:44;97256.34;;;17.78;48.41
4410;BME280;2218;51.408;7.208;2023-03-14T03:06:11;97251.09;;;17.78;48.26
4410;BME280;2218;51.408;7.208;2023-03-14T03:08:38;97243.22;;;17.78;48.36
4410;BME280;2218;51.408;7.208;2023-03-14T03:11:06;97245.84;;;17.78;48.30
4410;BME280;2218;51.408;7.208;2023-03-14T03:13:35;97235.34;;;17.78;48.24
4410;BME280;2218;51.408;7.208;2023-03-14T03:16:05;97236.31;;;17.77;48.19
4410;BME280;2218;51.408;7.208;2023-03-14T03:18:34;97247.66;;;17.78;48.28
4410;BME280;2218;51.408;7.208;2023-03-14T03:21:02;97235.34;;;17.78;48.26
4410;BME280;2218;51.408;7.208;2023-03-14T03:23:29;97233.69;;;17.77;48.34
4410;BME280;2218;51.408;7.208;2023-03-14T03:25:57;97225.81;;;17.77;48.19
4410;BME280;2218;51.408;7.208;2023-03-14T03:28:24;97220.56;;;17.77;47.75
4410;BME280;2218;51.408;7.208;2023-03-14T03:30:53;97216.13;;;17.78;48.40
4410;BME280;2218;51.408;7.208;2023-03-14T03:33:20;97212.69;;;17.77;47.98
4410;BME280;2218;51.408;7.208;2023-03-14T03:35:50;97210.06;;;17.77;48.23
4410;BME280;2218;51.408;7.208;2023-03-14T03:38:24;97216.97;;;17.78;48.34
4410;BME280;2218;51.408;7.208;2023-03-14T03:40:53;97222.22;;;17.78;48.08
4410;BME280;2218;51.408;7.208;2023-03-14T03:43:23;97216.97;;;17.78;48.27
4410;BME280;2218;51.408;7.208;2023-03-14T03:45:50;97230.09;;;17.78;48.10
4410;BME280;2218;51.408;7.208;2023-03-14T03:48:19;97221.38;;;17.78;48.01
4410;BME280;2218;51.408;7.208;2023-03-14T03:50:47;97226.47;;;17.79;48.17
4410;BME280;2218;51.408;7.208;2023-03-14T03:53:18;97229.09;;;17.79;48.14
4410;BME280;2218;51.408;7.208;2023-03-14T03:55:44;97228.28;;;17.79;48.21
4410;BME280;2218;51.408;7.208;2023-03-14T03:58:11;97222.91;;;17.80;48.27
4410;BME280;2218;51.408;7.208;2023-03-14T04:00:39;97236.03;;;17.80;48.11
4410;BME280;2218;51.408;7.208;2023-03-14T04:03:06;97221.91;;;17.81;47.92
4410;BME280;2218;51.408;7.208;2023-03-14T04:05:35;97227.16;;;17.81;47.82
4410;BME280;2218;51.408;7.208;2023-03-14T04:08:07;97222.91;;;17.80;48.29
4410;BME280;2218;51.408;7.208;2023-03-14T04:10:35;97213.22;;;17.81;48.19
4410;BME280;2218;51.408;7.208;2023-03-14T04:13:11;97212.22;;;17.82;48.01
4410;BME280;2218;51.408;7.208;2023-03-14T04:15:40;97216.66;;;17.81;48.16
4410;BME280;2218;51.408;7.208;2023-03-14T04:18:17;97205.31;;;17.81;47.86
4410;BME280;2218;51.408;7.208;2023-03-14T04:20:50;97200.88;;;17.81;48.49
4410;BME280;2218;51.408;7.208;2023-03-14T04:23:19;97190.38;;;17.81;48.52
4410;BME280;2218;51.408;7.208;2023-03-14T04:25:49;97195.63;;;17.81;48.21
4410;BME280;2218;51.408;7.208;2023-03-14T04:28:16;97206.97;;;17.82;48.17
4410;BME280;2218;51.408;7.208;2023-03-14T04:30:43;97200.88;;;17.81;48.16
4410;BME280;2218;51.408;7.208;2023-03-14T04:33:14;97199.09;;;17.82;47.96
4410;BME280;2218;51.408;7.208;2023-03-14T04:35:52;97207.97;;;17.81;48.10
4410;BME280;2218;51.408;7.208;2023-03-14T04:38:19;97228.81;;;17.82;48.15
4410;BME280;2218;51.408;7.208;2023-03-14T04:40:47;97224.53;;;17.81;48.17
4410;BME280;2218;51.408;7.208;2023-03-14T04:43:16;97217.47;;;17.82;48.12
4410;BME280;2218;51.408;7.208;2023-03-14T04:45:50;97214.03;;;17.81;48.25
4410;BME280;2218;51.408;7.208;2023-03-14T04:48:18;97200.88;;;17.81;48.22
4410;BME280;2218;51.408;7.208;2023-03-14T04:50:46;97194.00;;;17.80;48.13
4410;BME280;2218;51.408;7.208;2023-03-14T04:53:16;97192.19;;;17.81;47.94
4410;BME280;2218;51.408;7.208;2023-03-14T04:55:48;97189.56;;;17.81;47.92
4410;BME280;2218;51.408;7.208;2023-03-14T04:58:16;97196.75;;;17.79;48.25
4410;BME280;2218;51.408;7.208;2023-03-14T05:00:44;97205.31;;;17.81;48.09
4410;BME280;2218;51.408;7.208;2023-03-14T05:03:29;97205.31;;;17.81;48.15
4410;BME280;2218;51.408;7.208;2023-03-14T05:06:26;97198.25;;;17.81;47.74
4410;BME280;2218;51.408;7.208;2023-03-14T05:09:12;97195.63;;;17.81;48.12
4410;BME280;2218;51.408;7.208;2023-03-14T05:11:38;97190.38;;;17.81;48.10
4410;BME280;2218;51.408;7.208;2023-03-14T05:14:14;97198.25;;;17.81;48.21
4410;BME280;2218;51.408;7.208;2023-03-14T05:17:05;97194.00;;;17.80;48.13
4410;BME280;2218;51.408;7.208;2023-03-14T05:19:43;97185.94;;;17.82;48.38
4410;BME280;2218;51.408;7.208;2023-03-14T05:22:22;97181.81;;;17.79;48.15
4410;BME280;2218;51.408;7.208;2023-03-14T05:25:04;97182.50;;;17.81;48.24
4410;BME280;2218;51.408;7.208;2023-03-14T05:27:31;97164.13;;;17.81;48.23
4410;BME280;2218;51.408;7.208;2023-03-14T05:30:09;97165.94;;;17.81;48.17
4410;BME280;2218;51.408;7.208;2023-03-14T05:32:52;97164.94;;;17.82;47.74
4410;BME280;2218;51.408;7.208;2023-03-14T05:35:37;97156.25;;;17.81;48.34
4410;BME280;2218;51.408;7.208;2023-03-14T05:38:04;97140.47;;;17.81;48.21
4410;BME280;2218;51.408;7.208;2023-03-14T05:40:51;97141.28;;;17.82;48.30
4410;BME280;2218;51.408;7.208;2023-03-14T05:43:37;97133.41;;;17.82;48.16
4410;BME280;2218;51.408;7.208;2023-03-14T05:46:31;97128.97;;;17.82;48.38
4410;BME280;2218;51.408;7.208;2023-03-14T05:49:09;97131.59;;;17.82;48.11
4410;BME280;2218;51.408;7.208;2023-03-14T05:52:09;97128.97;;;17.82;47.90
4410;BME280;2218;51.408;7.208;2023-03-14T05:55:03;97123.72;;;17.82;47.88
4410;BME280;2218;51.408;7.208;2023-03-14T05:57:52;97126.34;;;17.82;48.18
4410;BME280;2218;51.408;7.208;2023-03-14T06:00:50;97123.72;;;17.82;48.25
4410;BME280;2218;51.408;7.208;2023-03-14T06:03:34;97128.97;;;17.82;48.01
4410;BME280;2218;51.408;7.208;2023-03-14T06:06:01;97125.53;;;17.82;48.32
4410;BME280;2218;51.408;7.208;2023-03-14T06:08:28;97128.97;;;17.82;48.14
4410;BME280;2218;51.408;7.208;2023-03-14T06:10:57;97128.16;;;17.82;48.30
4410;BME280;2218;51.408;7.208;2023-03-14T06:13:30;97126.34;;;17.82;48.32
4410;BME280;2218;51.408;7.208;2023-03-14T06:15:57;97125.53;;;17.82;48.42
4410;BME280;2218;51.408;7.208;2023-03-14T06:18:24;97131.78;;;17.81;48.21
4410;BME280;2218;51.408;7.208;2023-03-14T06:20:53;97132.59;;;17.81;48.66
4410;BME280;2218;51.408;7.208;2023-03-14T06:23:24;97130.09;;;17.80;48.33
4410;BME280;2218;51.408;7.208;2023-03-14T06:25:52;97137.84;;;17.81;48.30
4410;BME280;2218;51.408;7.208;2023-03-14T06:28:21;97131.78;;;17.81;48.35
4410;BME280;2218;51.408;7.208;2023-03-14T06:30:50;97135.34;;;17.80;48.42
4410;BME280;2218;51.408;7.208;2023-03-14T06:33:17;97145.72;;;17.81;48.46
4410;BME280;2218;51.408;7.208;2023-03-14T06:35:44;97142.28;;;17.81;48.38
4410;BME280;2218;51.408;7.208;2023-03-14T06:38:11;97142.28;;;17.81;48.33
4410;BME280;2218;51.408;7.208;2023-03-14T06:40:38;97144.91;;;17.81;48.43
4410;BME280;2218;51.408;7.208;2023-03-14T06:43:10;97138.66;;;17.82;48.52
4410;BME280;2218;51.408;7.208;2023-03-14T06:45:40;97134.53;;;17.79;48.17
4410;BME280;2218;51.408;7.208;2023-03-14T06:48:08;97137.84;;;17.81;48.41
4410;BME280;2218;51.408;7.208;2023-03-14T06:50:49;97152.31;;;17.86;48.67
4410;BME280;2218;51.408;7.208;2023-03-14T06:53:16;97150.69;;;17.93;48.73
4410;BME280;2218;51.408;7.208;2023-03-14T06:55:44;97149.91;;;18.00;49.02
4410;BME280;2218;51.408;7.208;2023-03-14T06:58:14;97144.81;;;18.07;48.90
4410;BME280;2218;51.408;7.208;2023-03-14T07:00:44;97152.56;;;18.17;48.63
4410;BME280;2218;51.408;7.208;2023-03-14T07:03:16;97152.41;;;18.34;48.47
4410;BME280;2218;51.408;7.208;2023-03-14T07:05:47;97143.06;;;18.48;48.45
4410;BME280;2218;51.408;7.208;2023-03-14T07:08:15;97152.44;;;18.59;48.06
4410;BME280;2218;51.408;7.208;2023-03-14T07:10:42;97149.53;;;18.70;48.02
4410;BME280;2218;51.408;7.208;2023-03-14T07:13:09;97155.09;;;18.83;47.89
4410;BME280;2218;51.408;7.208;2023-03-14T07:15:48;97143.75;;;18.91;48.10
4410;BME280;2218;51.408;7.208;2023-03-14T07:18:16;97148.84;;;18.93;48.20
4410;BME280;2218;51.408;7.208;2023-03-14T07:20:45;97146.22;;;19.01;48.04
4410;BME280;2218;51.408;7.208;2023-03-14T07:23:13;97138.78;;;19.04;48.01
4410;BME280;2218;51.408;7.208;2023-03-14T07:25:46;97152.44;;;19.08;47.91
4410;BME280;2218;51.408;7.208;2023-03-14T07:28:14;97151.44;;;19.09;47.86
4410;BME280;2218;51.408;7.208;2023-03-14T07:30:43;97155.38;;;19.13;48.11
4410;BME280;2218;51.408;7.208;2023-03-14T07:33:18;97149.81;;;19.16;47.82
4410;BME280;2218;51.408;7.208;2023-03-14T07:35:47;97150.28;;;19.20;47.61
4410;BME280;2218;51.408;7.208;2023-03-14T07:38:14;97143.38;;;19.19;47.62
4410;BME280;2218;51.408;7.208;2023-03-14T07:41:00;97161.28;;;19.23;47.94
4410;BME280;2218;51.408;7.208;2023-03-14T07:43:29;97162.59;;;19.27;47.84
4410;BME280;2218;51.408;7.208;2023-03-14T07:46:00;97163.91;;;19.31;47.89
4410;BME280;2218;51.408;7.208;2023-03-14T07:48:28;97165.56;;;19.32;47.82
4410;BME280;2218;51.408;7.208;2023-03-14T07:50:56;97165.22;;;19.35;47.78
4410;BME280;2218;51.408;7.208;2023-03-14T07:53:24;97171.13;;;19.37;47.96
4410;BME280;2218;51.408;7.208;2023-03-14T07:55:51;97175.75;;;19.35;48.27
4410;BME280;2218;51.408;7.208;2023-03-14T07:58:18;97176.91;;;19.33;47.87
4410;BME280;2218;51.408;7.208;2023-03-14T08:00:47;97172.13;;;19.36;48.03
4410;BME280;2218;51.408;7.208;2023-03-14T08:03:14;97170.50;;;19.35;47.82
4410;BME280;2218;51.408;7.208;2023-03-14T08:05:45;97166.88;;;19.36;47.65
4410;BME280;2218;51.408;7.208;2023-03-14T08:08:13;97166.88;;;19.36;47.92
4410;BME280;2218;51.408;7.208;2023-03-14T08:10:40;97163.91;;;19.40;47.80
4410;BME280;2218;51.408;7.208;2023-03-14T08:13:08;97159.28;;;19.42;47.69
4410;BME280;2218;51.408;7.208;2023-03-14T08:15:36;97160.91;;;19.43;47.64
4410;BME280;2218;51.408;7.208;2023-03-14T08:18:04;97167.81;;;19.44;47.61
4410;BME280;2218;51.408;7.208;2023-03-14T08:20:32;97174.75;;;19.45;47.45
4410;BME280;2218;51.408;7.208;2023-03-14T08:23:01;97172.94;;;19.45;47.37
4410;BME280;2218;51.408;7.208;2023-03-14T08:25:28;97171.13;;;19.46;47.61
4410;BME280;2218;51.408;7.208;2023-03-14T08:27:56;97165.50;;;19.49;47.48
4410;BME280;2218;51.408;7.208;2023-03-14T08:30:23;97163.53;;;19.51;47.57
4410;BME280;2218;51.408;7.208;2023-03-14T08:32:50;97171.44;;;19.51;47.34
4410;BME280;2218;51.408;7.208;2023-03-14T08:35:17;97160.72;;;19.52;47.98
4410;BME280;2218;51.408;7.208;2023-03-14T08:37:44;97168.44;;;19.54;47.36
4410;BME280;2218;51.408;7.208;2023-03-14T08:40:14;97168.44;;;19.54;47.53
4410;BME280;2218;51.408;7.208;2023-03-14T08:42:42;97177.03;;;19.56;47.29
4410;BME280;2218;51.408;7.208;2023-03-14T08:45:12;97173.41;;;19.57;47.34
4410;BME280;2218;51.408;7.208;2023-03-14T08:47:42;97178.66;;;19.57;47.44
4410;BME280;2218;51.408;7.208;2023-03-14T08:50:10;97183.28;;;19.63;47.23
4410;BME280;2218;51.408;7.208;2023-03-14T08:52:37;97179.13;;;19.69;47.16
4410;BME280;2218;51.408;7.208;2023-03-14T08:55:08;97176.50;;;19.69;47.24
4410;BME280;2218;51.408;7.208;2023-03-14T08:57:36;97173.72;;;19.70;47.31
4410;BME280;2218;51.408;7.208;2023-03-14T09:00:05;97181.94;;;19.75;47.37
4410;BME280;2218;51.408;7.208;2023-03-14T09:02:36;97187.19;;;19.75;47.53
4410;BME280;2218;51.408;7.208;2023-03-14T09:05:04;97183.38;;;19.78;47.23
4410;BME280;2218;51.408;7.208;2023-03-14T09:07:31;97185.69;;;19.81;47.43
4410;BME280;2218;51.408;7.208;2023-03-14T09:09:58;97187.66;;;19.79;47.46
4410;BME280;2218;51.408;7.208;2023-03-14T09:12:25;97195.41;;;19.80;47.26
4410;BME280;2218;51.408;7.208;2023-03-14T09:14:53;97189.78;;;19.83;47.39
4410;BME280;2218;51.408;7.208;2023-03-14T09:17:20;97182.69;;;19.84;47.25
4410;BME280;2218;51.408;7.208;2023-03-14T09:19:47;97209.72;;;19.86;47.43
4410;BME280;2218;51.408;7.208;2023-03-14T09:22:14;97243.16;;;19.85;47.56
4410;BME280;2218;51.408;7.208;2023-03-14T09:24:41;97247.25;;;19.88;47.27
4410;BME280;2218;51.408;7.208;2023-03-14T09:27:08;97234.06;;;19.88;47.37
4410;BME280;2218;51.408;7.208;2023-03-14T09:29:35;97248.06;;;19.88;47.15
4410;BME280;2218;51.408;7.208;2023-03-14T09:32:04;97240.34;;;19.87;47.31
4410;BME280;2218;51.408;7.208;2023-03-14T09:34:34;97251.56;;;19.89;47.50
4410;BME280;2218;51.408;7.208;2023-03-14T09:37:01;97254.00;;;19.91;47.52
4410;BME280;2218;51.408;7.208;2023-03-14T09:39:28;97262.75;;;19.91;47.49
4410;BME280;2218;51.408;7.208;2023-03-14T09:41:58;97286.28;;;19.93;47.63
4410;BME280;2218;51.408;7.208;2023-03-14T09:44:31;97306.38;;;19.94;47.56
4410;BME280;2218;51.408;7.208;2023-03-14T09:47:04;97325.31;;;19.97;47.61
4410;BME280;2218;51.408;7.208;2023-03-14T09:49:36;97333.22;;;19.97;47.53
4410;BME280;2218;51.408;7.208;2023-03-14T09:52:13;97339.31;;;19.98;47.62
4410;BME280;2218;51.408;7.208;2023-03-14T09:54:44;97355.13;;;19.98;47.59
4410;BME280;2218;51.408;7.208;2023-03-14T09:57:17;97367.31;;;19.99;47.44
4410;BME280;2218;51.408;7.208;2023-03-14T09:59:48;97377.84;;;19.99;47.55
4410;BME280;2218;51.408;7.208;2023-03-14T10:02:19;97382.16;;;20.00;47.51
4410;BME280;2218;51.408;7.208;2023-03-14T10:04:48;97398.00;;;20.00;47.55
4410;BME280;2218;51.408;7.208;2023-03-14T10:07:19;97402.25;;;20.01;47.33
4410;BME280;2218;51.408;7.208;2023-03-14T10:09:50;97414.44;;;20.02;47.40
4410;BME280;2218;51.408;7.208;2023-03-14T10:12:19;97430.25;;;20.02;47.30
4410;BME280;2218;51.408;7.208;2023-03-14T10:14:49;97442.44;;;20.03;47.20
4410;BME280;2218;51.408;7.208;2023-03-14T10:17:19;97444.94;;;20.04;47.06
4410;BME280;2218;51.408;7.208;2023-03-14T10:19:55;97457.13;;;20.05;47.15
4410;BME280;2218;51.408;7.208;2023-03-14T10:22:26;97461.59;;;20.05;47.27
4410;BME280;2218;51.408;7.208;2023-03-14T10:24:58;97467.66;;;20.05;47.05
4410;BME280;2218;51.408;7.208;2023-03-14T10:27:32;97476.41;;;20.06;47.28
4410;BME280;2218;51.408;7.208;2023-03-14T10:30:04;97479.03;;;20.06;47.12
4410;BME280;2218;51.408;7.208;2023-03-14T10:32:36;97487.59;;;20.08;47.05
4410;BME280;2218;51.408;7.208;2023-03-14T10:35:19;97492.88;;;20.08;46.71
4410;BME280;2218;51.408;7.208;2023-03-14T10:37:56;97507.72;;;20.09;46.92
4410;BME280;2218;51.408;7.208;2023-03-14T10:40:28;97515.63;;;20.09;46.86
4410;BME280;2218;51.408;7.208;2023-03-14T10:42:59;97532.28;;;20.09;46.73
4410;BME280;2218;51.408;7.208;2023-03-14T10:45:35;97549.56;;;20.12;46.33
4410;BME280;2218;51.408;7.208;2023-03-14T10:48:20;97562.75;;;20.12;46.19
4410;BME280;2218;51.408;7.208;2023-03-14T10:50:55;97569.34;;;20.16;46.33
4410;BME280;2218;51.408;7.208;2023-03-14T10:53:22;97592.91;;;20.18;46.24
4410;BME280;2218;51.408;7.208;2023-03-14T10:55:50;97606.78;;;20.20;46.16
4410;BME280;2218;51.408;7.208;2023-03-14T10:58:23;97616.50;;;20.19;45.82
4410;BME280;2218;51.408;7.208;2023-03-14T11:01:12;97649.78;;;20.20;45.37
4410;BME280;2218;51.408;7.208;2023-03-14T11:03:51;97644.81;;;20.17;42.48
4410;BME280;2218;51.408;7.208;2023-03-14T11:06:28;97654.03;;;20.13;42.37
4410;BME280;2218;51.408;7.208;2023-03-14T11:09:07;97672.50;;;20.13;41.86
4410;BME280;2218;51.408;7.208;2023-03-14T11:11:43;97685.69;;;20.13;41.26
4410;BME280;2218;51.408;7.208;2023-03-14T11:14:23;97702.50;;;20.12;41.26
4410;BME280;2218;51.408;7.208;2023-03-14T11:16:57;97708.75;;;20.11;42.02
4410;BME280;2218;51.408;7.208;2023-03-14T11:19:43;97733.16;;;20.13;44.12
4410;BME280;2218;51.408;7.208;2023-03-14T11:22:21;97736.78;;;20.12;44.15
4410;BME280;2218;51.408;7.208;2023-03-14T11:25:07;97761.19;;;20.14;44.29
4410;BME280;2218;51.408;7.208;2023-03-14T11:27:43;97775.34;;;20.13;44.04
4410;BME280;2218;51.408;7.208;2023-03-14T11:30:22;97775.34;;;20.13;44.00
4410;BME280;2218;51.408;7.208;2023-03-14T11:33:02;97787.69;;;20.12;42.77
4410;BME280;2218;51.408;7.208;2023-03-14T11:35:37;97792.16;;;20.12;43.21
4410;BME280;2218;51.408;7.208;2023-03-14T11:38:22;97792.31;;;20.10;43.36
4410;BME280;2218;51.408;7.208;2023-03-14T11:40:54;97809.94;;;20.10;42.90
4410;BME280;2218;51.408;7.208;2023-03-14T11:43:28;97819.50;;;20.11;43.49
4410;BME280;2218;51.408;7.208;2023-03-14T11:46:04;97830.88;;;20.11;43.69
4410;BME280;2218;51.408;7.208;2023-03-14T11:48:41;97841.59;;;20.10;43.65
4410;BME280;2218;51.408;7.208;2023-03-14T11:51:20;97857.41;;;20.10;43.98
4410;BME280;2218;51.408;7.208;2023-03-14T11:53:59;97864.50;;;20.09;43.84
4410;BME280;2218;51.408;7.208;2023-03-14T11:56:34;97867.28;;;20.08;43.49
4410;BME280;2218;51.408;7.208;2023-03-14T11:59:10;97874.22;;;20.09;43.60
4410;BME280;2218;51.408;7.208;2023-03-14T12:01:52;97876.19;;;20.07;43.38
4410;BME280;2218;51.408;7.208;2023-03-14T12:04:37;97884.78;;;20.09;43.37
4410;BME280;2218;51.408;7.208;2023-03-14T12:07:17;97892.69;;;20.09;43.17
4410;BME280;2218;51.408;7.208;2023-03-14T12:09:46;97894.47;;;20.08;42.92
4410;BME280;2218;51.408;7.208;2023-03-14T12:12:20;97910.28;;;20.08;43.19
4410;BME280;2218;51.408;7.208;2023-03-14T12:14:54;97921.00;;;20.07;42.86
4410;BME280;2218;51.408;7.208;2023-03-14T12:17:26;97918.38;;;20.07;43.04
4410;BME280;2218;51.408;7.208;2023-03-14T12:20:04;97927.94;;;20.08;42.37
4410;BME280;2218;51.408;7.208;2023-03-14T12:22:35;97935.84;;;20.08;42.43
4410;BME280;2218;51.408;7.208;2023-03-14T12:25:17;97938.47;;;20.08;42.47
4410;BME280;2218;51.408;7.208;2023-03-14T12:27:49;97953.34;;;20.09;42.49
4410;BME280;2218;51.408;7.208;2023-03-14T12:30:31;97968.16;;;20.10;42.21
4410;BME280;2218;51.408;7.208;2023-03-14T12:33:31;97976.09;;;20.10;42.25
4410;BME280;2218;51.408;7.208;2023-03-14T12:36:05;97987.28;;;20.12;42.15
4410;BME280;2218;51.408;7.208;2023-03-14T12:39:03;97991.56;;;20.13;42.36
4410;BME280;2218;51.408;7.208;2023-03-14T12:41:41;98011.03;;;20.12;40.10
4410;BME280;2218;51.408;7.208;2023-03-14T12:44:46;98004.63;;;20.14;42.00
4410;BME280;2218;51.408;7.208;2023-03-14T12:48:01;98008.09;;;20.15;42.06
4410;BME280;2218;51.408;7.208;2023-03-14T12:50:46;98017.66;;;20.16;41.40
4410;BME280;2218;51.408;7.208;2023-03-14T12:54:03;98026.41;;;20.17;41.70
4410;BME280;2218;51.408;7.208;2023-03-14T12:56:45;98050.94;;;20.17;40.89
4410;BME280;2218;51.408;7.208;2023-03-14T12:59:32;98065.66;;;20.20;40.40
4410;BME280;2218;51.408;7.208;2023-03-14T13:02:13;98066.16;;;20.23;40.19
4410;BME280;2218;51.408;7.208;2023-03-14T13:04:48;98073.63;;;20.28;40.37
4410;BME280;2218;51.408;7.208;2023-03-14T13:07:33;98084.72;;;20.31;40.41
4410;BME280;2218;51.408;7.208;2023-03-14T13:10:16;98099.53;;;20.32;40.26
4410;BME280;2218;51.408;7.208;2023-03-14T13:12:50;98116.06;;;20.34;40.47
4410;BME280;2218;51.408;7.208;2023-03-14T13:15:28;98127.44;;;20.35;40.45
4410;BME280;2218;51.408;7.208;2023-03-14T13:18:02;98137.69;;;20.38;40.45
4410;BME280;2218;51.408;7.208;2023-03-14T13:20:35;98150.75;;;20.39;40.40
4410;BME280;2218;51.408;7.208;2023-03-14T13:23:04;98159.31;;;20.42;40.28
4410;BME280;2218;51.408;7.208;2023-03-14T13:25:35;98172.69;;;20.40;40.20
4410;BME280;2218;51.408;7.208;2023-03-14T13:28:04;98167.25;;;20.42;40.50
4410;BME280;2218;51.408;7.208;2023-03-14T13:30:40;98180.28;;;20.43;40.26
4410;BME280;2218;51.408;7.208;2023-03-14T13:33:14;98185.41;;;20.45;40.53
4410;BME280;2218;51.408;7.208;2023-03-14T13:35:44;98190.69;;;20.45;39.85
4410;BME280;2218;51.408;7.208;2023-03-14T13:38:20;98196.66;;;20.47;40.20
4410;BME280;2218;51.408;7.208;2023-03-14T13:40:51;98204.59;;;20.47;40.47
4410;BME280;2218;51.408;7.208;2023-03-14T13:43:29;98209.88;;;20.47;40.31
4410;BME280;2218;51.408;7.208;2023-03-14T13:46:05;98213.19;;;20.49;40.20
4410;BME280;2218;51.408;7.208;2023-03-14T13:48:40;98223.88;;;20.47;40.47
4410;BME280;2218;51.408;7.208;2023-03-14T13:51:13;98228.19;;;20.48;40.40
4410;BME280;2218;51.408;7.208;2023-03-14T13:53:45;98238.72;;;20.48;40.32
4410;BME280;2218;51.408;7.208;2023-03-14T13:56:13;98236.94;;;20.49;40.22